createdAt,value
2018-06-09T00:02:14.266Z,20.13
2018-06-09T00:04:42.710Z,10.70
2018-06-09T00:07:10.887Z,13.07
2018-06-09T00:09:39.113Z,14.27
2018-06-09T00:12:07.430Z,16.23
2018-06-09T00:14:35.642Z,16.70
2018-06-09T00:17:04.073Z,10.83
2018-06-09T00:19:33.179Z,10.70
2018-06-09T00:22:01.424Z,14.13
2018-06-09T00:24:29.637Z,6.07
2018-06-09T00:26:57.826Z,16.87
2018-06-09T00:29:25.885Z,13.60
2018-06-09T00:31:54.094Z,10.30
2018-06-09T00:34:22.354Z,11.73
2018-06-09T00:36:50.538Z,9.60
2018-06-09T00:39:18.834Z,17.83
2018-06-09T00:41:47.088Z,10.90
2018-06-09T00:44:15.561Z,7.30
2018-06-09T00:46:43.527Z,11.67
2018-06-09T00:49:11.627Z,17.90
2018-06-09T00:51:39.658Z,6.77
2018-06-09T00:54:08.878Z,8.60
2018-06-09T00:56:47.202Z,22.03
2018-06-09T00:59:15.548Z,10.70
2018-06-09T01:01:43.876Z,11.47
2018-06-09T01:04:12.185Z,11.63
2018-06-09T01:06:40.478Z,11.00
2018-06-09T01:09:09.267Z,8.60
2018-06-09T01:11:37.446Z,14.50
2018-06-09T01:14:05.698Z,15.87
2018-06-09T01:16:34.025Z,18.30
2018-06-09T01:19:02.287Z,13.37
2018-06-09T01:21:30.578Z,16.52
2018-06-09T01:23:58.794Z,13.90
2018-06-09T01:26:27.062Z,13.13
2018-06-09T01:28:55.316Z,11.83
2018-06-09T01:31:23.507Z,17.47
2018-06-09T01:33:51.508Z,9.80
2018-06-09T01:36:19.690Z,23.60
2018-06-09T01:38:48.092Z,9.23
2018-06-09T01:41:16.412Z,11.73
2018-06-09T01:43:44.641Z,12.20
2018-06-09T01:46:13.143Z,12.67
2018-06-09T01:48:41.378Z,12.03
2018-06-09T01:51:09.677Z,18.53
2018-06-09T01:53:37.934Z,10.90
2018-06-09T01:56:06.163Z,10.60
2018-06-09T01:58:34.456Z,10.60
2018-06-09T02:01:02.676Z,12.50
2018-06-09T02:03:30.692Z,12.63
2018-06-09T02:05:59.017Z,14.90
2018-06-09T02:08:27.431Z,16.30
2018-06-09T02:10:55.427Z,11.77
2018-06-09T02:13:23.643Z,14.63
2018-06-09T02:15:51.871Z,11.60
2018-06-09T02:18:20.309Z,15.07
2018-06-09T02:20:48.528Z,11.60
2018-06-09T02:23:16.823Z,10.63
2018-06-09T02:25:45.040Z,10.07
2018-06-09T02:28:13.283Z,13.77
2018-06-09T02:30:41.665Z,17.60
2018-06-09T02:33:09.947Z,10.70
2018-06-09T02:35:38.158Z,8.00
2018-06-09T02:38:06.337Z,8.87
2018-06-09T02:40:34.560Z,13.27
2018-06-09T02:43:03.239Z,14.03
2018-06-09T02:45:31.585Z,7.20
2018-06-09T02:47:59.875Z,13.50
2018-06-09T02:50:28.094Z,17.60
2018-06-09T02:52:56.282Z,12.50
2018-06-09T02:55:24.503Z,13.77
2018-06-09T02:57:52.720Z,14.23
2018-06-09T03:00:20.967Z,11.77
2018-06-09T03:02:49.352Z,16.10
2018-06-09T03:05:17.644Z,10.67
2018-06-09T03:07:45.831Z,14.20
2018-06-09T03:10:14.051Z,10.80
2018-06-09T03:12:42.239Z,12.87
2018-06-09T03:15:10.465Z,9.93
2018-06-09T03:17:38.769Z,15.87
2018-06-09T03:20:07.013Z,29.37
2018-06-09T03:22:35.155Z,13.53
2018-06-09T03:25:04.119Z,16.93
2018-06-09T03:27:32.347Z,21.13
2018-06-09T03:30:00.556Z,10.73
2018-06-09T03:32:28.836Z,21.00
2018-06-09T03:34:57.097Z,9.90
2018-06-09T03:37:25.330Z,9.07
2018-06-09T03:39:53.545Z,18.83
2018-06-09T03:42:21.775Z,21.13
2018-06-09T03:44:50.075Z,12.30
2018-06-09T03:47:18.300Z,12.50
2018-06-09T03:49:46.289Z,15.17
2018-06-09T03:52:14.647Z,14.83
2018-06-09T03:54:42.847Z,11.53
2018-06-09T03:57:11.072Z,13.80
2018-06-09T03:59:39.343Z,15.63
2018-06-09T04:02:07.343Z,15.23
2018-06-09T04:04:35.548Z,12.27
2018-06-09T04:07:03.804Z,16.83
2018-06-09T04:09:31.826Z,13.73
2018-06-09T04:12:00.060Z,14.17
2018-06-09T04:14:28.287Z,19.87
2018-06-09T04:16:57.536Z,9.90
2018-06-09T04:19:25.763Z,12.00
2018-06-09T04:21:54.032Z,10.40
2018-06-09T04:24:22.239Z,21.23
2018-06-09T04:26:56.851Z,23.57
2018-06-09T04:29:25.112Z,13.33
2018-06-09T04:31:53.415Z,16.57
2018-06-09T04:34:21.662Z,11.63
2018-06-09T04:36:49.880Z,10.97
2018-06-09T04:39:18.075Z,13.10
2018-06-09T04:41:46.379Z,15.87
2018-06-09T04:44:14.631Z,14.43
2018-06-09T04:46:43.014Z,24.73
2018-06-09T04:49:11.230Z,14.67
2018-06-09T04:51:39.453Z,19.90
2018-06-09T04:54:07.685Z,12.50
2018-06-09T04:56:35.997Z,24.80
2018-06-09T04:59:04.226Z,11.23
2018-06-09T05:01:32.462Z,17.73
2018-06-09T05:04:00.680Z,23.47
2018-06-09T05:06:28.941Z,8.93
2018-06-09T05:08:57.263Z,15.07
2018-06-09T05:11:25.467Z,19.73
2018-06-09T05:13:53.790Z,22.93
2018-06-09T05:16:23.011Z,11.23
2018-06-09T05:18:51.239Z,10.80
2018-06-09T05:21:19.488Z,11.10
2018-06-09T05:23:47.825Z,11.13
2018-06-09T05:26:16.057Z,10.33
2018-06-09T05:28:44.033Z,11.80
2018-06-09T05:31:12.271Z,13.03
2018-06-09T05:33:40.534Z,10.20
2018-06-09T05:36:08.798Z,8.20
2018-06-09T05:38:37.063Z,6.90
2018-06-09T05:41:05.903Z,14.07
2018-06-09T05:43:34.103Z,12.10
2018-06-09T05:46:02.294Z,12.70
2018-06-09T05:48:30.511Z,12.97
2018-06-09T05:50:58.736Z,12.23
2018-06-09T05:53:26.968Z,11.67
2018-06-09T05:55:55.197Z,11.33
2018-06-09T05:58:23.266Z,16.60
2018-06-09T06:00:51.468Z,9.93
2018-06-09T06:03:19.585Z,17.77
2018-06-09T06:05:47.901Z,11.20
2018-06-09T06:08:16.780Z,19.73
2018-06-09T06:10:45.083Z,10.60
2018-06-09T06:13:13.387Z,11.73
2018-06-09T06:15:41.642Z,13.73
2018-06-09T06:18:09.867Z,14.27
2018-06-09T06:20:38.107Z,10.67
2018-06-09T06:23:07.204Z,11.93
2018-06-09T06:25:35.308Z,12.10
2018-06-09T06:28:04.546Z,6.90
2018-06-09T06:30:32.831Z,18.37
2018-06-09T06:33:01.166Z,18.67
2018-06-09T06:35:29.539Z,7.87
2018-06-09T06:37:57.818Z,8.67
2018-06-09T06:40:26.095Z,13.03
2018-06-09T06:42:54.748Z,5.20
2018-06-09T06:45:23.153Z,16.30
2018-06-09T06:47:51.474Z,10.20
2018-06-09T06:50:19.829Z,10.03
2018-06-09T06:52:48.066Z,9.50
2018-06-09T06:55:16.275Z,12.33
2018-06-09T06:57:44.528Z,7.70
2018-06-09T07:00:12.965Z,7.03
2018-06-09T07:02:41.251Z,8.57
2018-06-09T07:05:09.580Z,11.53
2018-06-09T07:07:37.821Z,10.70
2018-06-09T07:10:06.087Z,16.93
2018-06-09T07:12:34.379Z,5.03
2018-06-09T07:15:02.703Z,9.07
2018-06-09T07:17:30.948Z,8.33
2018-06-09T07:19:59.265Z,9.63
2018-06-09T07:22:27.554Z,6.93
2018-06-09T07:24:55.831Z,6.60
2018-06-09T07:27:24.510Z,17.33
2018-06-09T07:29:52.848Z,14.10
2018-06-09T07:32:21.809Z,11.17
2018-06-09T07:34:51.363Z,6.50
2018-06-09T07:37:19.693Z,12.80
2018-06-09T07:39:48.779Z,12.00
2018-06-09T07:42:17.003Z,5.67
2018-06-09T07:44:45.313Z,11.10
2018-06-09T07:47:13.527Z,17.27
2018-06-09T07:49:41.859Z,18.03
2018-06-09T07:52:10.043Z,9.70
2018-06-09T07:54:38.275Z,8.20
2018-06-09T07:57:06.567Z,11.20
2018-06-09T07:59:34.878Z,8.83
2018-06-09T08:02:03.057Z,14.60
2018-06-09T08:04:31.500Z,9.93
2018-06-09T08:06:59.683Z,14.73
2018-06-09T08:09:27.907Z,8.97
2018-06-09T08:11:56.113Z,15.53
2018-06-09T08:14:24.344Z,16.00
2018-06-09T08:16:52.538Z,13.97
2018-06-09T08:19:20.968Z,19.37
2018-06-09T08:21:49.357Z,9.90
2018-06-09T08:24:17.419Z,11.70
2018-06-09T08:26:45.638Z,8.97
2018-06-09T08:29:13.819Z,6.83
2018-06-09T08:31:42.034Z,12.90
2018-06-09T08:34:10.243Z,13.70
2018-06-09T08:36:38.310Z,19.47
2018-06-09T08:39:07.091Z,9.70
2018-06-09T08:41:35.444Z,7.53
2018-06-09T08:44:03.734Z,9.90
2018-06-09T08:46:31.953Z,8.17
2018-06-09T08:49:00.167Z,7.93
2018-06-09T08:51:28.406Z,7.57
2018-06-09T08:53:56.609Z,7.73
2018-06-09T08:56:24.829Z,10.60
2018-06-09T08:58:53.467Z,10.00
2018-06-09T09:01:21.687Z,7.83
2018-06-09T09:03:49.976Z,12.83
2018-06-09T09:06:18.203Z,12.25
2018-06-09T09:08:46.437Z,11.63
2018-06-09T09:11:15.195Z,12.63
2018-06-09T09:13:43.175Z,15.00
2018-06-09T09:16:11.274Z,5.87
2018-06-09T09:18:39.306Z,6.50
2018-06-09T09:21:07.592Z,8.97
2018-06-09T09:23:35.958Z,5.77
2018-06-09T09:26:05.005Z,12.57
2018-06-09T09:28:33.873Z,9.63
2018-06-09T09:31:02.192Z,5.77
2018-06-09T09:33:30.400Z,5.57
2018-06-09T09:35:58.691Z,10.13
2018-06-09T09:38:26.919Z,7.20
2018-06-09T09:40:55.423Z,5.27
2018-06-09T09:43:23.713Z,13.13
2018-06-09T09:45:52.258Z,8.60
2018-06-09T09:48:20.779Z,16.03
2018-06-09T09:50:48.804Z,7.73
2018-06-09T09:53:17.364Z,7.13
2018-06-09T09:55:45.716Z,11.30
2018-06-09T09:58:13.971Z,10.27
2018-06-09T10:00:42.191Z,7.90
2018-06-09T10:03:11.271Z,7.33
2018-06-09T10:05:39.584Z,5.13
2018-06-09T10:08:08.414Z,8.90
2018-06-09T10:10:36.661Z,7.83
2018-06-09T10:13:04.843Z,9.03
2018-06-09T10:15:33.038Z,5.40
2018-06-09T10:18:01.253Z,7.70
2018-06-09T10:20:29.460Z,10.20
2018-06-09T10:22:57.569Z,10.83
2018-06-09T10:25:25.773Z,7.27
2018-06-09T10:27:53.997Z,5.30
2018-06-09T10:30:22.423Z,5.80
2018-06-09T10:32:50.459Z,15.43
2018-06-09T10:35:18.618Z,9.50
2018-06-09T10:40:12.098Z,5.23
2018-06-09T10:42:40.323Z,8.17
2018-06-09T10:45:08.630Z,6.63
2018-06-09T10:47:36.952Z,4.43
2018-06-09T10:50:04.954Z,10.97
2018-06-09T10:52:33.223Z,11.97
2018-06-09T10:55:01.416Z,10.23
2018-06-09T10:57:29.471Z,7.90
2018-06-09T10:59:57.810Z,6.83
2018-06-09T11:02:26.204Z,8.33
2018-06-09T11:04:55.639Z,7.13
2018-06-09T11:07:25.222Z,9.90
2018-06-09T11:09:53.797Z,8.73
2018-06-09T11:12:22.077Z,16.50
2018-06-09T11:14:50.335Z,7.33
2018-06-09T11:17:18.731Z,12.70
2018-06-09T11:19:47.133Z,9.00
2018-06-09T11:22:15.518Z,17.30
2018-06-09T11:24:44.490Z,10.00
2018-06-09T11:27:12.887Z,7.40
2018-06-09T11:29:41.677Z,7.47
2018-06-09T11:32:10.261Z,5.23
2018-06-09T11:34:38.276Z,14.57
2018-06-09T11:37:11.428Z,14.93
2018-06-09T11:39:40.285Z,48.93
2018-06-09T11:42:08.929Z,24.73
2018-06-09T11:44:37.284Z,11.67
2018-06-09T11:47:06.232Z,7.07
2018-06-09T11:49:34.642Z,6.13
2018-06-09T11:52:03.003Z,9.10
2018-06-09T11:54:31.437Z,5.43
2018-06-09T11:57:00.794Z,5.50
2018-06-09T11:59:29.716Z,22.17
2018-06-09T12:01:58.180Z,6.43
2018-06-09T12:04:26.799Z,10.70
2018-06-09T12:06:55.119Z,13.07
2018-06-09T12:09:23.243Z,9.70
2018-06-09T12:11:51.514Z,13.50
2018-06-09T12:14:21.057Z,6.90
2018-06-09T12:16:49.582Z,14.20
2018-06-09T12:19:20.369Z,7.77
2018-06-09T12:21:48.457Z,8.70
2018-06-09T12:24:16.586Z,8.13
2018-06-09T12:26:45.037Z,15.63
2018-06-09T12:29:14.308Z,9.60
2018-06-09T12:31:44.713Z,10.43
2018-06-09T12:34:13.176Z,9.23
2018-06-09T12:36:41.399Z,6.57
2018-06-09T12:39:09.842Z,9.87
2018-06-09T12:41:38.168Z,22.07
2018-06-09T12:44:06.441Z,16.30
2018-06-09T12:46:34.598Z,27.17
2018-06-09T12:49:02.974Z,17.57
2018-06-09T12:51:32.590Z,101.38
2018-06-09T12:54:01.381Z,21.77
2018-06-09T12:56:29.718Z,8.97
2018-06-09T12:58:58.047Z,11.03
2018-06-09T13:01:26.333Z,10.93
2018-06-09T13:03:54.595Z,14.50
2018-06-09T13:06:23.156Z,16.57
2018-06-09T13:08:51.604Z,10.70
2018-06-09T13:11:19.988Z,56.10
2018-06-09T13:13:48.125Z,17.90
2018-06-09T13:16:16.577Z,16.33
2018-06-09T13:18:44.756Z,51.47
2018-06-09T13:21:14.166Z,51.87
2018-06-09T13:23:42.311Z,47.03
2018-06-09T13:26:11.239Z,15.87
2018-06-09T13:28:40.407Z,13.33
2018-06-09T13:31:10.089Z,21.50
2018-06-09T13:33:38.600Z,10.03
2018-06-09T13:36:07.149Z,11.53
2018-06-09T13:38:36.224Z,5.87
2018-06-09T13:41:05.578Z,6.20
2018-06-09T13:43:35.527Z,66.20
2018-06-09T13:46:05.043Z,124.53
2018-06-09T13:48:33.512Z,29.00
2018-06-09T13:51:02.128Z,59.23
2018-06-09T13:53:30.844Z,16.13
2018-06-09T13:55:59.492Z,15.30
2018-06-09T13:58:28.030Z,7.77
2018-06-09T14:00:56.305Z,9.80
2018-06-09T14:03:24.661Z,8.23
2018-06-09T14:05:53.458Z,7.63
2018-06-09T14:08:22.407Z,8.57
2018-06-09T14:10:51.060Z,8.13
2018-06-09T14:13:19.621Z,7.80
2018-06-09T14:15:47.997Z,7.73
2018-06-09T14:18:16.522Z,8.60
2018-06-09T14:20:44.810Z,23.53
2018-06-09T14:23:12.931Z,6.63
2018-06-09T14:25:41.426Z,15.90
2018-06-09T14:28:09.959Z,7.60
2018-06-09T14:30:38.868Z,13.80
2018-06-09T14:33:07.210Z,8.40
2018-06-09T14:35:35.757Z,9.83
2018-06-09T14:38:03.925Z,8.70
2018-06-09T14:40:32.284Z,12.87
2018-06-09T14:43:01.081Z,26.00
2018-06-09T14:45:29.654Z,10.60
2018-06-09T14:47:57.834Z,13.73
2018-06-09T14:50:26.419Z,15.80
2018-06-09T14:52:55.025Z,8.23
2018-06-09T14:55:23.468Z,9.80
2018-06-09T14:57:51.752Z,11.70
2018-06-09T15:00:20.210Z,9.97
2018-06-09T15:02:48.708Z,17.90
2018-06-09T15:05:17.223Z,8.40
2018-06-09T15:07:45.809Z,10.63
2018-06-09T15:10:14.374Z,8.60
2018-06-09T15:12:42.848Z,12.90
2018-06-09T15:15:11.239Z,11.83
2018-06-09T15:17:40.357Z,5.70
2018-06-09T15:20:08.841Z,6.13
2018-06-09T15:22:37.455Z,12.63
2018-06-09T15:25:05.943Z,37.37
2018-06-09T15:27:34.654Z,28.07
2018-06-09T15:30:03.525Z,9.73
2018-06-09T15:32:32.421Z,10.87
2018-06-09T15:35:01.159Z,9.20
2018-06-09T15:37:29.501Z,17.67
2018-06-09T15:39:57.771Z,8.77
2018-06-09T15:42:26.680Z,12.63
2018-06-09T15:44:55.113Z,9.57
2018-06-09T15:47:23.489Z,5.47
2018-06-09T15:49:51.739Z,6.30
2018-06-09T15:52:20.288Z,33.57
2018-06-09T15:54:48.544Z,17.90
2018-06-09T15:57:18.519Z,14.80
2018-06-09T15:59:46.811Z,4.87
2018-06-09T16:02:15.250Z,9.10
2018-06-09T16:04:43.271Z,27.10
2018-06-09T16:07:12.027Z,28.80
2018-06-09T16:09:40.555Z,11.60
2018-06-09T16:12:08.900Z,6.40
2018-06-09T16:14:37.350Z,10.73
2018-06-09T16:17:05.990Z,13.43
2018-06-09T16:19:34.210Z,11.77
2018-06-09T16:22:03.121Z,8.63
2018-06-09T16:24:31.683Z,22.13
2018-06-09T16:26:59.782Z,5.60
2018-06-09T16:29:28.265Z,4.87
2018-06-09T16:31:57.060Z,8.63
2018-06-09T16:34:25.425Z,7.77
2018-06-09T16:36:54.611Z,14.63
2018-06-09T16:39:22.807Z,6.30
2018-06-09T16:41:52.317Z,7.20
2018-06-09T16:44:20.645Z,12.93
2018-06-09T16:46:49.536Z,16.00
2018-06-09T16:49:18.333Z,8.07
2018-06-09T16:51:47.819Z,15.53
2018-06-09T16:54:16.640Z,24.90
2018-06-09T16:56:46.769Z,23.47
2018-06-09T16:59:15.115Z,8.93
2018-06-09T17:01:43.980Z,9.80
2018-06-09T17:04:15.358Z,19.30
2018-06-09T17:06:45.172Z,25.73
2018-06-09T17:09:19.304Z,17.90
2018-06-09T17:11:48.032Z,8.00
2018-06-09T17:14:16.595Z,11.57
2018-06-09T17:16:49.879Z,40.07
2018-06-09T17:19:18.610Z,15.07
2018-06-09T17:21:46.970Z,14.03
2018-06-09T17:24:15.748Z,25.07
2018-06-09T17:26:44.467Z,6.53
2018-06-09T17:29:13.140Z,9.90
2018-06-09T17:31:43.052Z,36.80
2018-06-09T17:34:11.190Z,10.77
2018-06-09T17:36:39.701Z,19.63
2018-06-09T17:39:08.312Z,18.57
2018-06-09T17:41:37.177Z,14.00
2018-06-09T17:44:07.745Z,6.83
2018-06-09T17:46:36.316Z,16.00
2018-06-09T17:49:04.785Z,31.10
2018-06-09T17:51:33.984Z,25.65
2018-06-09T17:54:02.727Z,12.83
2018-06-09T17:56:31.282Z,13.93
2018-06-09T17:59:00.698Z,13.77
2018-06-09T18:01:29.159Z,8.47
2018-06-09T18:03:57.574Z,9.80
2018-06-09T18:06:26.098Z,15.83
2018-06-09T18:08:54.901Z,179.93
2018-06-09T18:11:24.008Z,331.77
2018-06-09T18:13:53.066Z,146.17
2018-06-09T18:16:21.848Z,93.30
2018-06-09T18:18:51.042Z,78.72
2018-06-09T18:21:19.966Z,66.67
2018-06-09T18:23:48.361Z,30.63
2018-06-09T18:26:16.595Z,34.80
2018-06-09T18:28:45.210Z,22.17
2018-06-09T18:31:13.588Z,15.07
2018-06-09T18:33:42.367Z,15.90
2018-06-09T18:36:11.724Z,20.20
2018-06-09T18:38:40.114Z,27.33
2018-06-09T18:41:12.052Z,19.90
2018-06-09T18:43:45.352Z,15.30
2018-06-09T18:46:14.686Z,14.73
2018-06-09T18:48:43.061Z,16.23
2018-06-09T18:51:14.265Z,12.80
2018-06-09T18:53:43.375Z,30.47
2018-06-09T18:56:11.890Z,28.03
2018-06-09T18:58:40.758Z,21.03
2018-06-09T19:01:09.701Z,20.20
2018-06-09T19:03:38.829Z,16.30
2018-06-09T19:06:07.541Z,16.80
2018-06-09T19:08:36.174Z,25.62
2018-06-09T19:11:08.002Z,27.20
2018-06-09T19:13:36.317Z,29.50
2018-06-09T19:16:04.768Z,29.20
2018-06-09T19:18:33.022Z,19.30
2018-06-09T19:21:01.625Z,18.30
2018-06-09T19:23:30.437Z,22.27
2018-06-09T19:26:01.278Z,21.83
2018-06-09T19:28:29.806Z,15.90
2018-06-09T19:30:58.120Z,21.37
2018-06-09T19:33:26.569Z,13.67
2018-06-09T19:35:55.004Z,13.70
2018-06-09T19:38:23.511Z,19.87
2018-06-09T19:40:54.484Z,14.50
2018-06-09T19:43:23.122Z,13.05
2018-06-09T19:45:52.487Z,15.73
2018-06-09T19:48:21.168Z,26.07
2018-06-09T19:50:50.559Z,20.37
2018-06-09T19:53:20.474Z,31.50
2018-06-09T19:55:49.791Z,26.87
2018-06-09T19:58:19.233Z,17.13
2018-06-09T20:00:47.578Z,19.60
2018-06-09T20:03:16.111Z,16.50
2018-06-09T20:05:44.960Z,18.80
2018-06-09T20:08:15.599Z,21.70
2018-06-09T20:10:46.779Z,13.77
2018-06-09T20:13:15.902Z,20.10
2018-06-09T20:15:44.323Z,19.93
2018-06-09T20:18:13.431Z,26.73
2018-06-09T20:20:41.994Z,23.12
2018-06-09T20:23:13.653Z,24.00
2018-06-09T20:25:41.858Z,24.53
2018-06-09T20:28:12.303Z,19.13
2018-06-09T20:30:41.159Z,17.23
2018-06-09T20:33:09.360Z,19.23
2018-06-09T20:35:39.309Z,19.80
2018-06-09T20:38:08.196Z,20.03
2018-06-09T20:40:37.971Z,16.27
2018-06-09T20:43:06.898Z,15.17
2018-06-09T20:45:35.547Z,29.00
2018-06-09T20:48:05.190Z,16.40
2018-06-09T20:50:34.545Z,23.25
2018-06-09T20:53:02.876Z,15.60
2018-06-09T20:55:31.883Z,26.60
2018-06-09T20:58:00.290Z,18.53
2018-06-09T21:00:28.617Z,21.70
2018-06-09T21:02:57.759Z,17.37
2018-06-09T21:05:26.136Z,22.90
2018-06-09T21:07:54.582Z,16.47
2018-06-09T21:10:23.153Z,21.27
2018-06-09T21:12:52.237Z,19.93
2018-06-09T21:15:22.265Z,19.97
2018-06-09T21:17:50.584Z,18.53
2018-06-09T21:20:19.892Z,24.00
2018-06-09T21:22:48.226Z,26.50
2018-06-09T21:25:16.748Z,23.73
2018-06-09T21:27:50.951Z,20.37
2018-06-09T21:30:24.592Z,20.80
2018-06-09T21:32:58.474Z,17.63
2018-06-09T21:35:45.555Z,26.30
2018-06-09T21:38:18.237Z,21.70
2018-06-09T21:40:49.854Z,20.10
2018-06-09T21:43:23.688Z,37.37
2018-06-09T21:45:52.328Z,20.03
2018-06-09T21:48:23.083Z,29.13
2018-06-09T21:50:51.384Z,20.30
2018-06-09T21:53:19.638Z,16.30
2018-06-09T21:55:47.775Z,23.63
2018-06-09T21:58:15.987Z,16.70
2018-06-09T22:00:44.247Z,18.50
2018-06-09T22:03:12.571Z,25.10
2018-06-09T22:05:40.842Z,16.57
2018-06-09T22:08:09.060Z,20.10
2018-06-09T22:10:37.422Z,18.53
2018-06-09T22:13:06.066Z,26.20
2018-06-09T22:15:34.335Z,34.77
2018-06-09T22:18:02.648Z,23.90
2018-06-09T22:20:30.875Z,23.63
2018-06-09T22:22:59.375Z,18.20
2018-06-09T22:25:33.524Z,24.47
2018-06-09T22:28:01.911Z,18.60
2018-06-09T22:30:30.220Z,25.40
2018-06-09T22:32:58.607Z,19.03
2018-06-09T22:35:26.896Z,25.73
2018-06-09T22:37:55.252Z,25.43
2018-06-09T22:40:23.496Z,29.13
2018-06-09T22:42:51.787Z,25.93
2018-06-09T22:45:20.350Z,27.30
2018-06-09T22:47:48.918Z,36.73
2018-06-09T22:50:17.429Z,23.80
2018-06-09T22:52:46.010Z,23.03
2018-06-09T22:55:14.228Z,29.90
2018-06-09T22:57:42.976Z,30.83
2018-06-09T23:00:18.006Z,29.87
2018-06-09T23:02:47.583Z,26.65
2018-06-09T23:05:16.398Z,29.43
2018-06-09T23:07:44.734Z,35.90
2018-06-09T23:10:12.950Z,38.10
2018-06-09T23:12:41.331Z,34.27
2018-06-09T23:15:09.697Z,28.57
2018-06-09T23:17:37.830Z,25.60
2018-06-09T23:20:06.192Z,29.20
2018-06-09T23:22:34.425Z,30.83
2018-06-09T23:25:02.738Z,29.73
2018-06-09T23:27:30.971Z,41.17
2018-06-09T23:29:59.367Z,29.87
2018-06-09T23:32:28.189Z,26.05
2018-06-09T23:34:56.687Z,25.43
2018-06-09T23:37:24.944Z,24.97
2018-06-09T23:39:53.174Z,40.13
2018-06-09T23:42:21.407Z,23.90
2018-06-09T23:44:49.398Z,28.90
2018-06-09T23:47:17.807Z,35.33
2018-06-09T23:49:46.000Z,24.10
2018-06-09T23:52:14.248Z,28.00
2018-06-09T23:54:42.443Z,27.13
2018-06-09T23:57:10.502Z,22.07
2018-06-09T23:59:38.766Z,28.37
